createdAt,value
2023-02-21T00:01:14.955Z,2.17
2023-02-21T00:06:36.174Z,2.00
2023-02-21T00:12:00.312Z,1.77
2023-02-21T00:17:22.731Z,2.13
2023-02-21T00:22:43.860Z,2.25
2023-02-21T00:28:04.987Z,2.67
2023-02-21T00:33:27.151Z,2.53
2023-02-21T00:38:50.628Z,2.60
2023-02-21T00:44:11.540Z,2.17
2023-02-21T00:49:34.085Z,2.70
2023-02-21T00:54:55.293Z,2.47
2023-02-21T01:00:16.209Z,2.80
2023-02-21T01:05:38.661Z,2.80
2023-02-21T01:10:59.686Z,3.03
2023-02-21T01:16:20.683Z,3.08
2023-02-21T01:21:42.843Z,2.65
2023-02-21T01:27:04.048Z,3.17
2023-02-21T01:32:24.883Z,2.80
2023-02-21T01:37:47.344Z,2.35
2023-02-21T01:43:08.934Z,2.40
2023-02-21T01:48:34.691Z,2.28
2023-02-21T01:53:56.735Z,2.40
2023-02-21T01:59:20.375Z,2.20
2023-02-21T02:04:41.289Z,2.13
2023-02-21T02:10:03.570Z,2.45
2023-02-21T02:15:35.214Z,2.55
2023-02-21T02:21:04.372Z,1.70
2023-02-21T02:26:43.236Z,2.35
2023-02-21T02:32:02.373Z,2.10
2023-02-21T02:37:14.388Z,2.28
2023-02-21T02:42:25.267Z,1.60
2023-02-21T02:47:36.351Z,1.15
2023-02-21T02:52:51.706Z,1.30
2023-02-21T02:57:55.871Z,1.38
2023-02-21T03:03:16.609Z,1.50
2023-02-21T03:08:28.726Z,1.58
2023-02-21T03:13:39.243Z,1.50
2023-02-21T03:18:47.260Z,1.30
2023-02-21T03:23:56.020Z,1.92
2023-02-21T03:29:00.105Z,1.50
2023-02-21T03:34:03.552Z,1.48
2023-02-21T03:39:08.409Z,1.48
2023-02-21T03:44:12.296Z,1.83
2023-02-21T03:49:15.755Z,1.60
2023-02-21T03:54:20.588Z,1.73
2023-02-21T03:59:24.097Z,1.73
2023-02-21T04:04:27.863Z,2.00
2023-02-21T04:09:32.633Z,1.83
2023-02-21T04:14:36.054Z,2.92
2023-02-21T04:19:39.597Z,2.75
2023-02-21T04:24:44.734Z,2.38
2023-02-21T04:29:48.160Z,2.78
2023-02-21T04:34:51.547Z,2.42
2023-02-21T04:39:56.364Z,2.83
2023-02-21T04:45:01.002Z,3.08
2023-02-21T04:50:04.568Z,2.75
2023-02-21T04:55:09.905Z,3.35
2023-02-21T05:00:14.485Z,3.97
2023-02-21T05:05:18.114Z,3.67
2023-02-21T05:10:25.451Z,3.78
2023-02-21T05:15:30.489Z,4.28
2023-02-21T05:20:33.929Z,4.43
2023-02-21T05:25:38.851Z,3.60
2023-02-21T05:30:42.824Z,4.53
2023-02-21T05:35:47.905Z,4.78
2023-02-21T05:40:53.381Z,4.50
2023-02-21T05:45:57.552Z,4.45
2023-02-21T05:51:01.053Z,3.85
2023-02-21T05:56:06.240Z,4.65
2023-02-21T06:01:09.762Z,4.00
2023-02-21T06:06:15.629Z,4.10
2023-02-21T06:11:27.130Z,4.53
2023-02-21T06:16:35.091Z,4.72
2023-02-21T06:21:38.605Z,4.78
2023-02-21T06:26:43.438Z,5.25
2023-02-21T06:31:47.145Z,4.75
2023-02-21T06:36:53.517Z,5.40
2023-02-21T06:41:58.328Z,5.65
2023-02-21T06:47:02.310Z,5.53
2023-02-21T06:52:06.371Z,5.57
2023-02-21T06:57:11.140Z,5.72
2023-02-21T07:02:19.246Z,6.13
2023-02-21T07:07:22.816Z,5.45
2023-02-21T07:12:28.119Z,6.25
2023-02-21T07:17:31.782Z,5.95
2023-02-21T07:22:35.201Z,5.95
2023-02-21T07:27:40.311Z,7.93
2023-02-21T07:37:47.532Z,6.18
2023-02-21T07:42:52.767Z,5.70
2023-02-21T07:47:56.715Z,5.10
2023-02-21T07:53:01.965Z,4.80
2023-02-21T07:58:06.718Z,5.03
2023-02-21T08:03:13.317Z,5.18
2023-02-21T08:08:17.401Z,5.25
2023-02-21T08:13:22.210Z,5.00
2023-02-21T08:18:26.773Z,4.75
2023-02-21T08:23:30.219Z,4.10
2023-02-21T08:28:35.021Z,4.38
2023-02-21T08:33:38.484Z,3.90
2023-02-21T08:38:42.232Z,3.78
2023-02-21T08:43:48.153Z,3.25
2023-02-21T08:48:51.541Z,3.70
2023-02-21T08:53:55.187Z,2.95
2023-02-21T08:59:00.160Z,2.53
2023-02-21T09:04:04.720Z,2.75
2023-02-21T09:09:08.173Z,2.67
2023-02-21T09:14:13.149Z,2.60
2023-02-21T09:19:16.809Z,2.25
2023-02-21T09:24:25.231Z,2.58
2023-02-21T09:29:44.851Z,2.33
2023-02-21T09:34:49.544Z,2.60
2023-02-21T09:39:53.025Z,2.95
2023-02-21T09:44:58.429Z,2.97
2023-02-21T09:50:06.528Z,2.92
2023-02-21T09:55:16.182Z,3.00
2023-02-21T10:00:23.468Z,2.85
2023-02-21T10:05:40.800Z,2.88
2023-02-21T10:10:47.588Z,2.95
2023-02-21T10:15:57.685Z,2.72
2023-02-21T10:21:05.619Z,2.85
2023-02-21T10:26:12.886Z,3.33
2023-02-21T10:31:21.581Z,3.15
2023-02-21T10:36:25.480Z,3.17
2023-02-21T10:41:32.082Z,3.40
2023-02-21T10:46:41.137Z,3.25
2023-02-21T10:51:44.991Z,3.55
2023-02-21T10:56:49.780Z,3.83
2023-02-21T11:01:55.472Z,4.25
2023-02-21T11:07:01.569Z,4.93
2023-02-21T11:12:08.460Z,4.47
2023-02-21T11:17:20.002Z,4.13
2023-02-21T11:22:26.137Z,3.63
2023-02-21T11:27:32.615Z,3.67
2023-02-21T11:32:39.999Z,3.10
2023-02-21T11:37:52.761Z,1.92
2023-02-21T11:43:19.099Z,2.47
2023-02-21T11:48:31.131Z,1.98
2023-02-21T11:53:42.242Z,2.13
2023-02-21T11:58:53.157Z,3.50
2023-02-21T12:04:19.686Z,3.38
2023-02-21T12:09:32.129Z,2.60
2023-02-21T12:14:56.994Z,2.10
2023-02-21T12:20:19.688Z,1.67
2023-02-21T12:25:31.081Z,1.43
2023-02-21T12:30:55.780Z,1.40
2023-02-21T12:36:36.594Z,1.30
2023-02-21T12:41:59.139Z,1.50
2023-02-21T12:47:06.877Z,1.25
2023-02-21T12:52:17.980Z,1.23
2023-02-21T12:57:28.075Z,1.10
2023-02-21T13:02:40.431Z,1.00
2023-02-21T13:07:51.325Z,1.20
2023-02-21T13:13:00.132Z,1.08
2023-02-21T13:18:11.059Z,0.95
2023-02-21T13:23:36.608Z,1.00
2023-02-21T13:28:41.657Z,1.00
2023-02-21T13:33:49.623Z,1.00
2023-02-21T13:39:12.940Z,1.02
2023-02-21T13:44:24.152Z,1.00
2023-02-21T13:49:48.245Z,1.35
2023-02-21T13:55:27.480Z,1.40
2023-02-21T14:00:51.703Z,1.73
2023-02-21T14:06:33.244Z,1.52
2023-02-21T14:11:41.084Z,1.45
2023-02-21T14:16:49.979Z,1.40
2023-02-21T14:22:02.829Z,2.00
2023-02-21T14:27:38.760Z,1.50
2023-02-21T14:32:45.279Z,1.98
2023-02-21T14:37:55.864Z,2.10
2023-02-21T14:43:30.674Z,2.80
2023-02-21T14:49:03.732Z,2.08
2023-02-21T14:54:27.086Z,3.30
2023-02-21T15:00:12.165Z,1.75
2023-02-21T15:05:18.813Z,2.40
2023-02-21T15:10:42.763Z,1.95
2023-02-21T15:15:46.389Z,1.70
2023-02-21T15:21:04.585Z,2.67
2023-02-21T15:26:19.789Z,3.00
2023-02-21T15:31:23.276Z,2.13
2023-02-21T15:36:27.321Z,2.97
2023-02-21T15:41:34.444Z,2.60
2023-02-21T15:46:44.482Z,2.45
2023-02-21T15:51:50.407Z,2.40
2023-02-21T15:57:19.862Z,2.00
2023-02-21T16:02:26.247Z,1.90
2023-02-21T16:07:35.406Z,2.50
2023-02-21T16:12:43.622Z,1.70
2023-02-21T16:17:53.174Z,2.08
2023-02-21T16:23:23.379Z,1.88
2023-02-21T16:28:28.851Z,1.98
2023-02-21T16:33:33.055Z,1.55
2023-02-21T16:38:36.672Z,2.22
2023-02-21T16:43:41.445Z,3.40
2023-02-21T16:48:44.864Z,3.47
2023-02-21T16:53:48.934Z,2.78
2023-02-21T16:58:56.811Z,1.75
2023-02-21T17:04:01.589Z,1.77
2023-02-21T17:09:05.137Z,1.85
2023-02-21T17:14:10.163Z,2.03
2023-02-21T17:19:15.021Z,1.92
2023-02-21T17:24:19.243Z,1.58
2023-02-21T17:29:25.533Z,1.90
2023-02-21T17:34:29.006Z,2.05
2023-02-21T17:39:32.451Z,1.90
2023-02-21T17:44:37.917Z,2.13
2023-02-21T17:49:41.639Z,2.30
2023-02-21T17:54:45.371Z,2.00
2023-02-21T17:59:50.591Z,2.20
2023-02-21T18:04:54.061Z,1.80
2023-02-21T18:09:58.149Z,2.60
2023-02-21T18:15:02.951Z,2.95
2023-02-21T18:20:09.408Z,3.22
2023-02-21T18:25:14.390Z,3.58
2023-02-21T18:30:20.086Z,3.70
2023-02-21T18:35:23.563Z,3.50
2023-02-21T18:40:34.417Z,4.18
2023-02-21T18:45:40.578Z,4.28
2023-02-21T18:50:44.631Z,4.63
2023-02-21T18:55:48.114Z,4.85
2023-02-21T19:00:53.059Z,5.03
2023-02-21T19:05:56.579Z,5.10
2023-02-21T19:11:00.208Z,4.78
2023-02-21T19:16:05.754Z,5.88
2023-02-21T19:21:12.405Z,5.90
2023-02-21T19:26:15.987Z,5.88
2023-02-21T19:31:21.708Z,5.95
2023-02-21T19:36:25.381Z,6.30
2023-02-21T19:41:28.859Z,5.85
2023-02-21T19:46:34.006Z,6.40
2023-02-21T19:51:37.479Z,6.88
2023-02-21T19:56:40.928Z,8.55
2023-02-21T20:01:46.043Z,6.00
2023-02-21T20:06:50.390Z,6.88
2023-02-21T20:11:54.218Z,6.68
2023-02-21T20:16:59.010Z,5.63
2023-02-21T20:22:02.762Z,5.43
2023-02-21T20:27:06.229Z,6.80
2023-02-21T20:32:11.167Z,6.22
2023-02-21T20:37:16.923Z,5.32
2023-02-21T20:42:22.771Z,6.50
2023-02-21T20:47:29.158Z,5.72
2023-02-21T20:52:32.694Z,6.55
2023-02-21T20:57:36.941Z,5.10
2023-02-21T21:02:41.798Z,5.50
2023-02-21T21:07:45.909Z,5.97
2023-02-21T21:12:51.885Z,5.43
2023-02-21T21:17:56.922Z,5.55
2023-02-21T21:23:00.467Z,4.55
2023-02-21T21:28:05.668Z,4.90
2023-02-21T21:33:10.491Z,5.18
2023-02-21T21:38:15.994Z,6.70
2023-02-21T21:43:19.671Z,7.70
2023-02-21T21:48:24.878Z,8.93
2023-02-21T21:53:28.330Z,8.13
2023-02-21T21:58:33.781Z,7.78
2023-02-21T22:03:38.595Z,7.85
2023-02-21T22:08:42.041Z,8.77
2023-02-21T22:13:46.913Z,8.70
2023-02-21T22:18:52.659Z,8.38
2023-02-21T22:23:57.958Z,11.07
2023-02-21T22:29:05.996Z,8.32
2023-02-21T22:34:11.060Z,9.25
2023-02-21T22:39:15.012Z,8.43
2023-02-21T22:44:19.785Z,9.25
2023-02-21T22:49:24.874Z,8.00
2023-02-21T22:54:31.568Z,9.50
2023-02-21T22:59:37.776Z,8.32
2023-02-21T23:04:42.576Z,8.68
2023-02-21T23:09:48.547Z,8.27
2023-02-21T23:14:52.176Z,7.18
2023-02-21T23:19:56.942Z,8.77
2023-02-21T23:25:00.352Z,7.97
2023-02-21T23:30:03.762Z,9.15
2023-02-21T23:35:09.027Z,8.65
2023-02-21T23:42:55.988Z,8.30
2023-02-21T23:47:59.548Z,8.43
2023-02-21T23:53:03.441Z,7.50
2023-02-21T23:58:10.636Z,7.82
